createdAt,value
2018-04-29T00:01:14.684Z,8.20
2018-04-29T00:03:43.570Z,8.17
2018-04-29T00:06:12.506Z,7.77
2018-04-29T00:08:40.695Z,7.60
2018-04-29T00:11:08.835Z,8.50
2018-04-29T00:13:36.988Z,9.30
2018-04-29T00:16:05.137Z,9.93
2018-04-29T00:18:33.293Z,8.50
2018-04-29T00:21:01.454Z,8.60
2018-04-29T00:23:29.596Z,9.80
2018-04-29T00:25:57.742Z,11.13
2018-04-29T00:28:26.690Z,11.30
2018-04-29T00:30:54.834Z,10.90
2018-04-29T00:33:23.002Z,12.63
2018-04-29T00:35:51.142Z,11.70
2018-04-29T00:38:20.034Z,9.63
2018-04-29T00:40:48.178Z,10.27
2018-04-29T00:43:16.314Z,10.57
2018-04-29T00:45:44.484Z,10.43
2018-04-29T00:48:12.617Z,11.33
2018-04-29T00:50:40.767Z,10.10
2018-04-29T00:53:08.950Z,11.53
2018-04-29T00:55:37.077Z,11.57
2018-04-29T00:58:05.275Z,11.23
2018-04-29T01:00:33.514Z,11.60
2018-04-29T01:03:01.750Z,11.20
2018-04-29T01:05:30.695Z,10.67
2018-04-29T01:07:58.846Z,11.33
2018-04-29T01:10:27.161Z,10.87
2018-04-29T01:12:55.313Z,11.30
2018-04-29T01:15:23.476Z,10.63
2018-04-29T01:17:51.641Z,11.33
2018-04-29T01:20:19.788Z,11.07
2018-04-29T01:22:48.005Z,10.97
2018-04-29T01:25:16.878Z,11.30
2018-04-29T01:27:45.048Z,11.17
2018-04-29T01:30:13.259Z,11.33
2018-04-29T01:32:41.391Z,10.90
2018-04-29T01:35:09.551Z,11.50
2018-04-29T01:37:38.524Z,10.97
2018-04-29T01:40:06.676Z,12.20
2018-04-29T01:42:34.845Z,11.27
2018-04-29T01:45:03.015Z,10.40
2018-04-29T01:47:31.151Z,11.40
2018-04-29T01:49:59.303Z,12.53
2018-04-29T01:52:28.260Z,10.93
2018-04-29T01:54:56.394Z,10.50
2018-04-29T01:57:24.543Z,10.17
2018-04-29T01:59:53.460Z,11.00
2018-04-29T02:02:21.606Z,10.83
2018-04-29T02:04:50.571Z,10.60
2018-04-29T02:07:18.722Z,12.70
2018-04-29T02:09:46.859Z,11.33
2018-04-29T02:12:15.041Z,10.77
2018-04-29T02:14:43.182Z,10.90
2018-04-29T02:17:12.108Z,12.67
2018-04-29T02:19:40.293Z,10.50
2018-04-29T02:22:08.433Z,12.70
2018-04-29T02:24:36.593Z,13.73
2018-04-29T02:27:04.778Z,14.00
2018-04-29T02:29:32.917Z,15.07
2018-04-29T02:32:01.150Z,17.93
2018-04-29T02:34:29.302Z,18.83
2018-04-29T02:36:57.457Z,18.40
2018-04-29T02:39:25.641Z,17.70
2018-04-29T02:41:54.563Z,15.70
2018-04-29T02:44:22.717Z,17.63
2018-04-29T02:46:50.865Z,13.37
2018-04-29T02:49:19.039Z,13.53
2018-04-29T02:51:47.946Z,14.07
2018-04-29T02:54:16.107Z,16.80
2018-04-29T02:56:45.040Z,17.20
2018-04-29T02:59:13.185Z,16.40
2018-04-29T03:01:41.358Z,18.10
2018-04-29T03:04:09.524Z,18.13
2018-04-29T03:06:38.438Z,18.00
2018-04-29T03:09:06.588Z,18.83
2018-04-29T03:11:34.767Z,17.13
2018-04-29T03:14:02.943Z,16.20
2018-04-29T03:16:31.107Z,16.20
2018-04-29T03:18:59.282Z,16.20
2018-04-29T03:21:27.461Z,15.50
2018-04-29T03:23:55.621Z,15.10
2018-04-29T03:26:24.526Z,15.00
2018-04-29T03:28:52.710Z,15.77
2018-04-29T03:31:20.866Z,14.87
2018-04-29T03:33:49.037Z,16.33
2018-04-29T03:36:17.202Z,15.73
2018-04-29T03:38:45.375Z,15.80
2018-04-29T03:41:13.520Z,16.13
2018-04-29T03:43:41.668Z,16.57
2018-04-29T03:46:09.815Z,14.90
2018-04-29T03:48:37.991Z,14.30
2018-04-29T03:51:06.129Z,17.83
2018-04-29T03:53:34.311Z,15.03
2018-04-29T03:56:02.557Z,14.00
2018-04-29T03:58:48.190Z,14.37
2018-04-29T04:01:34.054Z,14.77
2018-04-29T04:04:03.721Z,14.20
2018-04-29T04:06:31.878Z,13.47
2018-04-29T04:09:00.023Z,13.87
2018-04-29T04:11:28.175Z,12.57
2018-04-29T04:13:57.112Z,13.33
2018-04-29T04:16:25.277Z,13.73
2018-04-29T04:18:53.435Z,13.50
2018-04-29T04:21:21.584Z,12.37
2018-04-29T04:23:50.633Z,12.80
2018-04-29T04:26:18.682Z,12.70
2018-04-29T04:28:46.823Z,11.60
2018-04-29T04:31:15.042Z,11.73
2018-04-29T04:33:43.173Z,12.47
2018-04-29T04:36:12.098Z,11.43
2018-04-29T04:38:40.238Z,13.67
2018-04-29T04:41:08.427Z,11.47
2018-04-29T04:43:36.578Z,12.73
2018-04-29T04:46:05.495Z,11.57
2018-04-29T04:48:33.685Z,13.77
2018-04-29T04:51:01.855Z,12.40
2018-04-29T04:53:30.013Z,13.20
2018-04-29T04:55:58.184Z,13.07
2018-04-29T04:58:26.327Z,13.80
2018-04-29T05:00:54.482Z,13.03
2018-04-29T05:03:22.619Z,12.43
2018-04-29T05:05:50.780Z,13.23
2018-04-29T05:08:18.921Z,13.43
2018-04-29T05:10:47.856Z,12.77
2018-04-29T05:13:16.027Z,12.33
2018-04-29T05:15:44.219Z,12.53
2018-04-29T05:18:12.354Z,11.47
2018-04-29T05:20:40.528Z,13.07
2018-04-29T05:23:08.712Z,12.20
2018-04-29T05:25:36.864Z,13.03
2018-04-29T05:28:04.996Z,14.00
2018-04-29T05:30:33.908Z,14.43
2018-04-29T05:33:02.819Z,15.73
2018-04-29T05:35:30.996Z,15.90
2018-04-29T05:37:59.174Z,16.07
2018-04-29T05:40:27.356Z,15.90
2018-04-29T05:42:55.488Z,15.43
2018-04-29T05:45:24.448Z,14.77
2018-04-29T05:47:52.609Z,16.80
2018-04-29T05:50:20.762Z,16.00
2018-04-29T05:52:48.934Z,16.80
2018-04-29T05:55:17.082Z,16.07
2018-04-29T05:57:45.256Z,15.40
2018-04-29T06:00:13.417Z,15.07
2018-04-29T06:02:42.331Z,15.37
2018-04-29T06:05:10.513Z,16.50
2018-04-29T06:07:38.658Z,15.03
2018-04-29T06:10:07.577Z,15.87
2018-04-29T06:12:35.730Z,16.53
2018-04-29T06:15:03.879Z,14.83
2018-04-29T06:17:32.058Z,16.23
2018-04-29T06:20:01.044Z,14.10
2018-04-29T06:22:30.036Z,15.67
2018-04-29T06:24:58.173Z,13.33
2018-04-29T06:27:26.363Z,13.03
2018-04-29T06:29:54.523Z,13.63
2018-04-29T06:32:22.692Z,13.80
2018-04-29T06:34:50.840Z,13.50
2018-04-29T06:37:19.010Z,12.93
2018-04-29T06:39:47.172Z,12.90
2018-04-29T06:42:15.434Z,12.87
2018-04-29T06:44:43.579Z,13.87
2018-04-29T06:47:11.746Z,12.47
2018-04-29T06:49:39.895Z,13.73
2018-04-29T06:52:08.077Z,12.10
2018-04-29T06:54:36.213Z,11.67
2018-04-29T06:57:04.352Z,11.90
2018-04-29T06:59:33.337Z,12.13
2018-04-29T07:02:01.444Z,11.00
2018-04-29T07:04:29.597Z,11.20
2018-04-29T07:06:57.790Z,11.23
2018-04-29T07:09:25.945Z,10.10
2018-04-29T07:11:55.180Z,10.93
2018-04-29T07:14:23.324Z,10.30
2018-04-29T07:16:52.258Z,11.23
2018-04-29T07:19:20.395Z,11.13
2018-04-29T07:21:48.551Z,11.20
2018-04-29T07:24:17.451Z,11.83
2018-04-29T07:26:45.645Z,10.87
2018-04-29T07:29:13.848Z,12.03
2018-04-29T07:31:41.972Z,11.87
2018-04-29T07:34:10.157Z,10.90
2018-04-29T07:36:38.306Z,11.90
2018-04-29T07:39:06.441Z,9.80
2018-04-29T07:41:34.585Z,10.17
2018-04-29T07:44:02.754Z,10.70
2018-04-29T07:46:30.976Z,9.87
2018-04-29T07:48:59.099Z,9.60
2018-04-29T07:51:27.237Z,10.07
2018-04-29T07:53:56.142Z,9.63
2018-04-29T07:56:25.066Z,9.60
2018-04-29T07:58:53.224Z,10.90
2018-04-29T08:01:21.430Z,10.47
2018-04-29T08:03:49.582Z,11.70
2018-04-29T08:06:17.734Z,11.13
2018-04-29T08:08:45.867Z,10.53
2018-04-29T08:11:14.081Z,10.20
2018-04-29T08:13:42.245Z,10.27
2018-04-29T08:16:10.406Z,11.53
2018-04-29T08:18:39.443Z,11.27
2018-04-29T08:21:07.578Z,11.47
2018-04-29T08:23:35.715Z,10.73
2018-04-29T08:26:03.876Z,11.07
2018-04-29T08:28:32.027Z,10.83
2018-04-29T08:31:00.185Z,10.63
2018-04-29T08:33:28.351Z,11.63
2018-04-29T08:35:56.501Z,10.93
2018-04-29T08:38:25.447Z,11.10
2018-04-29T08:40:53.586Z,10.47
2018-04-29T08:43:21.787Z,9.67
2018-04-29T08:45:49.930Z,10.60
2018-04-29T08:48:18.082Z,9.40
2018-04-29T08:50:46.993Z,11.10
2018-04-29T08:53:15.207Z,10.20
2018-04-29T08:55:43.458Z,9.27
2018-04-29T08:58:11.647Z,11.90
2018-04-29T09:00:39.809Z,10.83
2018-04-29T09:03:08.145Z,9.67
2018-04-29T09:05:37.060Z,10.77
2018-04-29T09:08:08.717Z,10.47
2018-04-29T09:10:37.073Z,11.03
2018-04-29T09:13:06.146Z,10.23
2018-04-29T09:15:34.277Z,10.80
2018-04-29T09:18:02.434Z,11.23
2018-04-29T09:20:30.653Z,10.83
2018-04-29T09:22:58.816Z,9.90
2018-04-29T09:25:27.008Z,9.50
2018-04-29T09:27:55.161Z,11.30
2018-04-29T09:30:23.453Z,11.43
2018-04-29T09:32:51.694Z,10.30
2018-04-29T09:35:19.860Z,10.17
2018-04-29T09:37:49.824Z,8.87
2018-04-29T09:40:18.833Z,9.20
2018-04-29T09:42:47.767Z,10.07
2018-04-29T09:45:15.984Z,9.20
2018-04-29T09:47:44.883Z,9.10
2018-04-29T09:50:13.818Z,8.50
2018-04-29T09:52:41.987Z,6.90
2018-04-29T09:55:10.147Z,7.60
2018-04-29T09:57:38.385Z,7.80
2018-04-29T10:00:06.568Z,9.13
2018-04-29T10:02:34.745Z,9.63
2018-04-29T10:05:03.670Z,8.50
2018-04-29T10:07:31.813Z,8.63
2018-04-29T10:10:00.004Z,9.80
2018-04-29T10:12:28.162Z,8.27
2018-04-29T10:14:56.361Z,10.70
2018-04-29T10:17:24.589Z,9.47
2018-04-29T10:19:53.543Z,9.53
2018-04-29T10:22:21.666Z,10.50
2018-04-29T10:24:50.576Z,10.10
2018-04-29T10:27:18.713Z,9.83
2018-04-29T10:29:47.681Z,10.73
2018-04-29T10:32:15.842Z,9.27
2018-04-29T10:34:43.982Z,8.80
2018-04-29T10:37:12.162Z,9.00
2018-04-29T10:39:40.369Z,10.43
2018-04-29T10:42:08.531Z,8.17
2018-04-29T10:44:36.686Z,8.87
2018-04-29T10:47:04.825Z,10.10
2018-04-29T10:49:37.030Z,9.80
2018-04-29T10:52:05.215Z,9.20
2018-04-29T10:54:33.362Z,11.20
2018-04-29T10:57:01.547Z,9.00
2018-04-29T10:59:29.702Z,8.20
2018-04-29T11:01:57.845Z,9.63
2018-04-29T11:04:26.765Z,8.20
2018-04-29T11:06:54.905Z,9.10
2018-04-29T11:09:23.063Z,9.03
2018-04-29T11:11:51.232Z,8.83
2018-04-29T11:14:20.778Z,8.40
2018-04-29T11:16:48.931Z,9.80
2018-04-29T11:19:17.875Z,9.40
2018-04-29T11:21:46.058Z,9.73
2018-04-29T11:24:14.237Z,10.90
2018-04-29T11:26:42.419Z,10.30
2018-04-29T11:29:10.604Z,9.70
2018-04-29T11:31:38.750Z,11.33
2018-04-29T11:34:06.938Z,10.13
2018-04-29T11:36:35.226Z,10.40
2018-04-29T11:39:03.377Z,9.13
2018-04-29T11:41:31.523Z,10.40
2018-04-29T11:43:59.943Z,11.03
2018-04-29T11:46:28.098Z,10.07
2018-04-29T11:48:56.290Z,10.40
2018-04-29T11:51:24.460Z,11.53
2018-04-29T11:53:52.600Z,10.30
2018-04-29T11:56:20.772Z,9.60
2018-04-29T11:58:48.905Z,9.20
2018-04-29T12:01:18.011Z,9.60
2018-04-29T12:03:46.203Z,10.10
2018-04-29T12:06:14.404Z,10.50
2018-04-29T12:08:42.568Z,10.10
2018-04-29T12:11:10.791Z,9.97
2018-04-29T12:13:39.738Z,8.60
2018-04-29T12:16:07.874Z,8.00
2018-04-29T12:18:36.242Z,8.80
2018-04-29T12:21:04.393Z,9.53
2018-04-29T12:23:32.569Z,8.60
2018-04-29T12:26:01.505Z,8.63
2018-04-29T12:28:29.666Z,7.87
2018-04-29T12:30:57.808Z,7.80
2018-04-29T12:33:26.741Z,8.13
2018-04-29T12:35:54.911Z,7.47
2018-04-29T12:38:23.041Z,9.10
2018-04-29T12:40:52.062Z,10.70
2018-04-29T12:43:20.313Z,10.13
2018-04-29T12:45:48.506Z,10.43
2018-04-29T12:48:16.843Z,9.80
2018-04-29T12:50:44.999Z,9.77
2018-04-29T12:53:13.175Z,9.30
2018-04-29T12:55:41.312Z,9.83
2018-04-29T12:58:09.469Z,9.00
2018-04-29T13:00:38.485Z,8.30
2018-04-29T13:03:06.717Z,8.80
2018-04-29T13:05:35.621Z,9.13
2018-04-29T13:08:04.534Z,9.60
2018-04-29T13:10:32.683Z,10.00
2018-04-29T13:13:00.873Z,7.53
2018-04-29T13:15:29.066Z,7.80
2018-04-29T13:17:57.266Z,9.90
2018-04-29T13:20:25.425Z,7.87
2018-04-29T13:22:53.681Z,8.43
2018-04-29T13:25:21.865Z,8.17
2018-04-29T13:27:50.031Z,9.47
2018-04-29T13:30:18.173Z,8.37
2018-04-29T13:32:46.352Z,7.50
2018-04-29T13:35:15.122Z,8.63
2018-04-29T13:37:44.021Z,8.70
2018-04-29T13:40:12.213Z,8.53
2018-04-29T13:42:40.353Z,7.60
2018-04-29T13:45:09.293Z,8.70
2018-04-29T13:47:37.436Z,8.47
2018-04-29T13:50:05.644Z,8.80
2018-04-29T13:52:33.897Z,8.53
2018-04-29T13:55:02.187Z,8.67
2018-04-29T13:57:30.408Z,10.07
2018-04-29T13:59:59.363Z,10.20
2018-04-29T14:02:27.552Z,9.27
2018-04-29T14:04:55.736Z,10.00
2018-04-29T14:07:23.907Z,10.70
2018-04-29T14:09:52.172Z,10.73
2018-04-29T14:12:20.431Z,10.97
2018-04-29T14:14:48.676Z,11.73
2018-04-29T14:17:16.834Z,9.83
2018-04-29T14:19:45.889Z,10.10
2018-04-29T14:22:14.079Z,9.47
2018-04-29T14:24:42.176Z,9.50
2018-04-29T14:27:11.139Z,11.00
2018-04-29T14:29:39.342Z,10.10
2018-04-29T14:32:08.434Z,10.40
2018-04-29T14:34:36.677Z,10.93
2018-04-29T14:37:04.847Z,10.63
2018-04-29T14:39:33.113Z,11.70
2018-04-29T14:42:01.265Z,11.57
2018-04-29T14:44:29.500Z,11.20
2018-04-29T14:46:57.662Z,12.07
2018-04-29T14:49:26.699Z,11.87
2018-04-29T14:51:54.787Z,10.90
2018-04-29T14:54:23.021Z,12.10
2018-04-29T14:56:51.313Z,10.60
2018-04-29T14:59:19.477Z,10.53
2018-04-29T15:01:47.831Z,12.63
2018-04-29T15:04:16.755Z,13.20
2018-04-29T15:06:44.957Z,14.30
2018-04-29T15:09:13.183Z,13.10
2018-04-29T15:11:41.353Z,16.23
2018-04-29T15:14:09.514Z,15.40
2018-04-29T15:16:38.454Z,14.83
2018-04-29T15:19:06.633Z,14.60
2018-04-29T15:21:34.793Z,16.17
2018-04-29T15:24:02.941Z,16.23
2018-04-29T15:26:31.114Z,17.20
2018-04-29T15:28:59.288Z,17.93
2018-04-29T15:31:27.442Z,16.67
2018-04-29T15:33:55.587Z,17.40
2018-04-29T15:36:23.764Z,17.73
2018-04-29T15:38:51.922Z,18.40
2018-04-29T15:41:20.196Z,17.10
2018-04-29T15:43:48.382Z,18.47
2018-04-29T15:46:16.540Z,18.10
2018-04-29T15:48:44.676Z,17.10
2018-04-29T15:51:12.818Z,17.67
2018-04-29T15:53:41.733Z,16.00
2018-04-29T15:56:09.945Z,19.00
2018-04-29T15:58:38.140Z,18.43
2018-04-29T16:01:06.302Z,19.10
2018-04-29T16:03:34.484Z,17.60
2018-04-29T16:06:02.653Z,16.07
2018-04-29T16:08:30.824Z,16.90
2018-04-29T16:10:58.978Z,17.57
2018-04-29T16:13:27.134Z,15.80
2018-04-29T16:15:55.306Z,13.63
2018-04-29T16:18:23.482Z,14.03
2018-04-29T16:20:51.630Z,17.00
2018-04-29T16:23:19.793Z,14.40
2018-04-29T16:25:49.233Z,15.47
2018-04-29T16:28:17.484Z,14.90
2018-04-29T16:30:45.574Z,16.53
2018-04-29T16:33:13.776Z,13.70
2018-04-29T16:35:41.905Z,15.43
2018-04-29T16:38:10.181Z,15.50
2018-04-29T16:40:38.357Z,15.53
2018-04-29T16:43:06.609Z,15.77
2018-04-29T16:45:35.538Z,15.50
2018-04-29T16:48:03.675Z,15.60
2018-04-29T16:50:32.648Z,15.27
2018-04-29T16:53:00.819Z,16.93
2018-04-29T16:55:29.034Z,16.50
2018-04-29T16:57:57.161Z,16.47
2018-04-29T17:00:25.318Z,17.33
2018-04-29T17:02:53.449Z,18.23
2018-04-29T17:05:21.590Z,18.27
2018-04-29T17:07:49.721Z,18.40
2018-04-29T17:10:17.908Z,19.80
2018-04-29T17:12:46.060Z,19.67
2018-04-29T17:15:14.260Z,20.60
2018-04-29T17:17:42.404Z,23.97
2018-04-29T17:20:10.609Z,19.37
2018-04-29T17:22:38.756Z,20.43
2018-04-29T17:25:06.940Z,16.70
2018-04-29T17:27:35.137Z,21.50
2018-04-29T17:30:03.303Z,19.40
2018-04-29T17:32:31.462Z,21.90
2018-04-29T17:34:59.674Z,23.50
2018-04-29T17:37:28.044Z,23.37
2018-04-29T17:39:57.004Z,22.33
2018-04-29T17:42:25.928Z,19.80
2018-04-29T17:44:54.865Z,21.60
2018-04-29T17:47:23.002Z,21.57
2018-04-29T17:49:51.906Z,20.90
2018-04-29T17:52:20.057Z,21.53
2018-04-29T17:54:48.234Z,20.80
2018-04-29T17:57:17.155Z,20.67
2018-04-29T17:59:45.359Z,19.33
2018-04-29T18:02:13.529Z,22.27
2018-04-29T18:04:42.046Z,20.57
2018-04-29T18:07:10.985Z,17.63
2018-04-29T18:09:39.151Z,24.97
2018-04-29T18:12:07.321Z,23.33
2018-04-29T18:14:35.502Z,26.50
2018-04-29T18:17:03.659Z,23.90
2018-04-29T18:19:31.823Z,25.80
2018-04-29T18:21:59.989Z,23.50
2018-04-29T18:24:28.918Z,24.97
2018-04-29T18:26:57.072Z,25.60
2018-04-29T18:29:25.586Z,26.97
2018-04-29T18:31:53.773Z,25.57
2018-04-29T18:34:21.974Z,18.33
2018-04-29T18:36:50.912Z,25.90
2018-04-29T18:39:19.261Z,22.03
2018-04-29T18:41:47.503Z,20.40
2018-04-29T18:44:16.479Z,23.63
2018-04-29T18:46:44.636Z,23.30
2018-04-29T18:49:12.816Z,22.20
2018-04-29T18:51:41.048Z,23.43
2018-04-29T18:54:09.134Z,21.27
2018-04-29T18:56:37.325Z,24.67
2018-04-29T18:59:05.495Z,23.10
2018-04-29T19:01:33.658Z,23.50
2018-04-29T19:04:01.827Z,23.87
2018-04-29T19:06:30.001Z,22.47
2018-04-29T19:08:58.185Z,22.60
2018-04-29T19:11:26.370Z,24.07
2018-04-29T19:13:54.633Z,23.23
2018-04-29T19:16:22.820Z,22.30
2018-04-29T19:18:51.697Z,23.33
2018-04-29T19:21:19.903Z,23.43
2018-04-29T19:23:48.914Z,22.77
2018-04-29T19:26:17.018Z,22.80
2018-04-29T19:28:45.170Z,23.77
2018-04-29T19:31:13.368Z,22.17
2018-04-29T19:33:41.535Z,22.30
2018-04-29T19:36:09.743Z,24.30
2018-04-29T19:38:38.813Z,22.97
2018-04-29T19:41:07.058Z,24.30
2018-04-29T19:43:35.258Z,23.10
2018-04-29T19:46:03.543Z,23.13
2018-04-29T19:48:31.714Z,22.10
2018-04-29T19:50:59.935Z,23.60
2018-04-29T19:53:28.391Z,22.70
2018-04-29T19:55:57.203Z,22.83
2018-04-29T19:58:25.419Z,22.83
2018-04-29T20:00:53.583Z,21.87
2018-04-29T20:03:21.747Z,23.50
2018-04-29T20:05:49.884Z,26.17
2018-04-29T20:08:18.056Z,23.73
2018-04-29T20:10:46.191Z,21.93
2018-04-29T20:13:14.472Z,24.93
2018-04-29T20:15:42.619Z,24.60
2018-04-29T20:18:10.800Z,25.30
2018-04-29T20:20:38.978Z,23.07
2018-04-29T20:23:07.285Z,24.07
2018-04-29T20:25:35.554Z,23.07
2018-04-29T20:28:04.863Z,27.37
2018-04-29T20:30:33.086Z,23.67
2018-04-29T20:33:01.303Z,25.07
2018-04-29T20:35:29.441Z,24.47
2018-04-29T20:37:57.683Z,25.37
2018-04-29T20:40:25.872Z,25.93
2018-04-29T20:42:54.129Z,25.80
2018-04-29T20:45:22.392Z,27.57
2018-04-29T20:47:50.591Z,26.97
2018-04-29T20:50:18.784Z,26.93
2018-04-29T20:52:47.044Z,23.50
2018-04-29T20:55:15.332Z,26.23
2018-04-29T20:57:43.594Z,27.50
2018-04-29T21:00:11.774Z,24.87
2018-04-29T21:02:40.194Z,25.83
2018-04-29T21:05:08.492Z,26.60
2018-04-29T21:07:36.694Z,26.00
2018-04-29T21:10:04.885Z,26.30
2018-04-29T21:12:33.075Z,27.70
2018-04-29T21:15:01.244Z,26.63
2018-04-29T21:17:29.457Z,27.07
2018-04-29T21:19:57.566Z,25.63
2018-04-29T21:22:26.354Z,27.13
2018-04-29T21:24:55.211Z,26.27
2018-04-29T21:27:23.381Z,26.10
2018-04-29T21:29:51.600Z,25.83
2018-04-29T21:32:19.756Z,27.50
2018-04-29T21:34:47.925Z,27.20
2018-04-29T21:37:16.305Z,25.47
2018-04-29T21:39:44.545Z,26.90
2018-04-29T21:42:12.733Z,26.70
2018-04-29T21:44:41.661Z,24.97
2018-04-29T21:47:09.814Z,24.87
2018-04-29T21:49:37.965Z,24.50
2018-04-29T21:52:06.111Z,25.67
2018-04-29T21:54:34.932Z,25.40
2018-04-29T21:57:03.079Z,24.10
2018-04-29T21:59:31.239Z,23.33
2018-04-29T22:01:59.406Z,24.10
2018-04-29T22:04:27.567Z,25.80
2018-04-29T22:06:55.751Z,23.37
2018-04-29T22:09:23.902Z,22.70
2018-04-29T22:11:52.111Z,24.10
2018-04-29T22:14:20.319Z,24.73
2018-04-29T22:16:49.234Z,22.60
2018-04-29T22:19:17.390Z,22.90
2018-04-29T22:21:47.579Z,22.40
2018-04-29T22:24:15.798Z,21.83
2018-04-29T22:26:43.972Z,21.50
2018-04-29T22:29:12.142Z,18.60
2018-04-29T22:31:40.274Z,21.00
2018-04-29T22:34:08.411Z,20.60
2018-04-29T22:36:36.564Z,20.30
2018-04-29T22:39:04.759Z,17.67
2018-04-29T22:41:32.902Z,21.93
2018-04-29T22:44:01.067Z,20.33
2018-04-29T22:46:29.999Z,20.17
2018-04-29T22:48:58.169Z,19.63
2018-04-29T22:51:26.377Z,19.63
2018-04-29T22:53:54.515Z,20.83
2018-04-29T22:56:22.658Z,19.50
2018-04-29T22:58:50.819Z,17.20
2018-04-29T23:01:19.781Z,17.70
2018-04-29T23:03:47.914Z,17.93
2018-04-29T23:06:16.065Z,16.83
2018-04-29T23:08:44.221Z,17.50
2018-04-29T23:11:13.186Z,18.03
2018-04-29T23:13:41.329Z,16.40
2018-04-29T23:16:09.493Z,18.37
2018-04-29T23:18:37.653Z,18.80
2018-04-29T23:21:06.256Z,16.77
2018-04-29T23:23:34.401Z,16.03
2018-04-29T23:26:03.464Z,15.57
2018-04-29T23:28:32.417Z,15.03
2018-04-29T23:31:00.570Z,17.93
2018-04-29T23:33:28.766Z,14.63
2018-04-29T23:35:56.906Z,16.40
2018-04-29T23:38:25.040Z,16.07
2018-04-29T23:40:53.202Z,14.73
2018-04-29T23:43:21.363Z,14.60
2018-04-29T23:45:49.541Z,15.13
2018-04-29T23:48:17.710Z,15.30
2018-04-29T23:50:45.864Z,13.77
2018-04-29T23:53:14.010Z,13.20
2018-04-29T23:55:42.194Z,13.73
2018-04-29T23:58:10.355Z,14.03
